John R Operle — WDB8611 — position and weather

sailwx.info

Track history (hours):
 
Tides and Currents Weather Stations Pressure Air Temp Water Temp Dewpoint Dewpoint Depression Visibility Wind Speed Wind Dir Waves Ship Positions

John R Operle

Owner: INGRAM BARGE COMPANY, Nashville, TN. More information available from US FCC via Universal Licensing System and Coast Guard Vessel Documentation Center.

Last reported at 2015-May-02 14:03 UTC. Time now 2015-May-26 03:37 UTC.
Position N 30°45' W 091°35'.
Warning: this ship's position is 23 days out of date.

Length 56 m; draft 12.2 m.

Type: Tow > 200 m length. MMSI: 366961510.

Date/timePositionNaut miles runAvg speedWind from/ knotsBaromVisibWave heightAir tempDewpointWater temp
2015-May-02 14:03N 30°45' W 091°35'3 4.9
2015-May-02 13:31N 30°44' W 091°33'4 4.4
2015-May-02 12:32N 30°44' W 091°27'5 4.4
2015-May-02 11:24N 30°44' W 091°22'4 4.9
2015-May-02 10:33N 30°40' W 091°20'4 3.8
2015-May-02 09:33N 30°37' W 091°18'3 2.6
2015-May-02 08:34N 30°34' W 091°17'3 3.2
2015-May-02 07:33N 30°33' W 091°14'3 3.2
2015-May-02 06:34N 30°30' W 091°17'3 3.2
2015-May-02 05:34N 30°31' W 091°13'3 3.3
2015-May-02 04:34N 30°28' W 091°12'3 2.6
2015-May-02 03:34N 30°26' W 091°12'1 1.3
2015-May-02 02:33N 30°24' W 091°12'0 0.0
2015-May-02 01:33N 30°24' W 091°12'0 0.0
2015-May-02 00:33N 30°24' W 091°12'0 0.0
2015-May-01 23:33N 30°24' W 091°12'2 2.4
2015-May-01 22:33N 30°23' W 091°14'3 2.9
2015-May-01 21:33N 30°21' W 091°11'4 1.9
2015-May-01 19:30N 30°18' W 091°14'3 2.8
2015-May-01 18:24N 30°17' W 091°11'4 4.1
2015-May-01 17:30N 30°15' W 091°07'3 1.5
2015-May-01 15:29N 30°12' W 091°06'53 1.2
2015-Apr-29 20:30N 29°56' W 090°08'3 3.4
2015-Apr-29 19:31N 29°55' W 090°05'  
2015-Apr-27 06:18N 29°58' W 090°03'  
Track history (hours):
 
Tides and Currents Weather Stations Pressure Air Temp Water Temp Dewpoint Dewpoint Depression Visibility Wind Speed Wind Dir Waves Ship Positions

John R Operle

Owner: INGRAM BARGE COMPANY, Nashville, TN. More information available from US FCC via Universal Licensing System and Coast Guard Vessel Documentation Center.

Last reported at 2015-May-02 14:03 UTC. Time now 2015-May-26 03:37 UTC.
Position N 30°45' W 091°35'.
Warning: this ship's position is 23 days out of date.

Length 56 m; draft 12.2 m.

Type: Tow > 200 m length. MMSI: 366961510.

Date/timePositionNaut miles runAvg speedWind from/ knotsBaromVisibWave heightAir tempDewpointWater temp
2015-May-02 14:03N 30°45' W 091°35'3 4.9
2015-May-02 13:31N 30°44' W 091°33'4 4.4
2015-May-02 12:32N 30°44' W 091°27'5 4.4
2015-May-02 11:24N 30°44' W 091°22'4 4.9
2015-May-02 10:33N 30°40' W 091°20'4 3.8
2015-May-02 09:33N 30°37' W 091°18'3 2.6
2015-May-02 08:34N 30°34' W 091°17'3 3.2
2015-May-02 07:33N 30°33' W 091°14'3 3.2
2015-May-02 06:34N 30°30' W 091°17'3 3.2
2015-May-02 05:34N 30°31' W 091°13'3 3.3
2015-May-02 04:34N 30°28' W 091°12'3 2.6
2015-May-02 03:34N 30°26' W 091°12'1 1.3
2015-May-02 02:33N 30°24' W 091°12'0 0.0
2015-May-02 01:33N 30°24' W 091°12'0 0.0
2015-May-02 00:33N 30°24' W 091°12'0 0.0
2015-May-01 23:33N 30°24' W 091°12'2 2.4
2015-May-01 22:33N 30°23' W 091°14'3 2.9
2015-May-01 21:33N 30°21' W 091°11'4 1.9
2015-May-01 19:30N 30°18' W 091°14'3 2.8
2015-May-01 18:24N 30°17' W 091°11'4 4.1
2015-May-01 17:30N 30°15' W 091°07'3 1.5
2015-May-01 15:29N 30°12' W 091°06'53 1.2
2015-Apr-29 20:30N 29°56' W 090°08'3 3.4
2015-Apr-29 19:31N 29°55' W 090°05'  
2015-Apr-27 06:18N 29°58' W 090°03'  

Dump ship's entire track history